Time;durP1;ratioP1;P1;durP2;ratioP2;P2;SDS_P1;SDS_P2;PMS_P1;PMS_P2;Temp;Humidity;BMP_temperature;BMP_pressure;BME280_temperature;BME280_humidity;BME280_pressure;Samples;Min_cycle;Max_cycle;Signal;HPM_P1;HPM_P2
2022/05/13 00:00:42;;;;;;;7.13;1.67;;;;;;;10.57;66.75;101742.16;4858632;29;20048;-75
2022/05/13 00:03:08;;;;;;;7.85;2.10;;;;;;;10.51;67.26;101747.09;4857815;29;20045;-69
2022/05/13 00:05:33;;;;;;;3.28;1.38;;;;;;;10.50;66.11;101734.44;4845011;29;20109;-74
2022/05/13 00:07:58;;;;;;;4.82;1.73;;;;;;;10.45;67.27;101734.72;4857845;29;20053;-75
2022/05/13 00:10:24;;;;;;;6.78;1.67;;;;;;;10.43;66.97;101739.34;4843698;29;20459;-69
2022/05/13 00:12:51;;;;;;;7.15;1.85;;;;;;;10.37;66.82;101728.84;4857919;29;20196;-68
2022/05/13 00:15:21;;;;;;;9.38;2.03;;;;;;;10.32;67.92;101730.94;4857973;29;20029;-76
2022/05/13 00:17:47;;;;;;;4.88;1.95;;;;;;;10.25;67.96;101732.25;4846342;29;20129;-69
2022/05/13 00:20:14;;;;;;;2.95;1.88;;;;;;;10.20;67.62;101729.75;4858260;29;20044;-69
2022/05/13 00:22:45;;;;;;;10.00;2.05;;;;;;;10.11;69.36;101725.69;4856702;29;20045;-76
2022/05/13 00:25:11;;;;;;;6.93;2.55;;;;;;;10.11;69.55;101730.28;4841750;29;20044;-69
2022/05/13 00:27:37;;;;;;;6.78;2.58;;;;;;;10.11;69.71;101722.97;4858004;29;20549;-68
2022/05/13 00:30:03;;;;;;;8.00;2.60;;;;;;;10.10;70.30;101723.97;4855597;29;20081;-70
2022/05/13 00:32:29;;;;;;;8.93;2.38;;;;;;;10.12;70.42;101727.47;4857752;29;20076;-75
2022/05/13 00:34:54;;;;;;;11.95;2.50;;;;;;;10.12;69.29;101723.88;4857418;29;20446;-70
2022/05/13 00:37:19;;;;;;;5.60;2.40;;;;;;;10.10;69.53;101718.53;4856443;29;20499;-76
2022/05/13 00:39:45;;;;;;;12.10;3.95;;;;;;;10.11;70.33;101728.41;4840565;29;20098;-75
2022/05/13 00:42:14;;;;;;;8.50;2.53;;;;;;;10.05;69.78;101726.06;4857907;29;20404;-75
2022/05/13 00:44:41;;;;;;;7.97;3.22;;;;;;;10.02;69.81;101719.91;4863083;29;20036;-76
2022/05/13 00:47:07;;;;;;;6.10;2.60;;;;;;;9.97;70.52;101723.75;4866126;29;20051;-75
2022/05/13 00:49:33;;;;;;;8.05;2.78;;;;;;;9.97;71.32;101728.31;4857500;29;20037;-69
2022/05/13 00:52:01;;;;;;;8.60;2.95;;;;;;;9.95;71.84;101733.84;4857066;29;20052;-71
2022/05/13 00:54:28;;;;;;;10.35;2.70;;;;;;;9.94;71.08;101723.06;4861464;29;20036;-78
2022/05/13 00:56:53;;;;;;;6.70;2.30;;;;;;;9.90;70.37;101716.94;4855026;29;20049;-69
2022/05/13 00:59:22;;;;;;;9.85;3.67;;;;;;;9.87;71.56;101727.97;4846657;29;20086;-70
2022/05/13 01:01:48;;;;;;;8.60;2.65;;;;;;;9.84;71.51;101725.44;4830074;29;20116;-69
2022/05/13 01:04:16;;;;;;;10.32;3.20;;;;;;;9.80;71.89;101722.97;4850792;29;20174;-70
2022/05/13 01:06:50;;;;;;;8.15;3.08;;;;;;;9.78;71.88;101727.59;4857262;29;20048;-70
2022/05/13 01:09:17;;;;;;;14.07;3.20;;;;;;;9.80;71.39;101725.69;4837757;29;20140;-69
2022/05/13 01:11:45;;;;;;;6.85;2.70;;;;;;;9.80;71.87;101723.84;4857119;29;20041;-74
2022/05/13 01:14:24;;;;;;;10.20;3.25;;;;;;;9.80;71.39;101720.25;4842413;29;20455;-70
2022/05/13 01:19:34;;;;;;;7.70;3.38;;;;;;;9.73;71.89;101725.13;4839054;29;20399;-75
2022/05/13 01:22:17;;;;;;;9.45;3.15;;;;;;;9.73;71.05;101721.53;4857849;29;20040;-70
2022/05/13 01:24:43;;;;;;;11.48;2.75;;;;;;;9.68;72.07;101716.34;4844775;29;20041;-76
2022/05/13 01:27:09;;;;;;;14.70;3.00;;;;;;;9.65;72.32;101714.69;4860866;29;20129;-70
2022/05/13 01:29:34;;;;;;;6.75;2.55;;;;;;;9.65;71.99;101714.69;4861555;29;20136;-70
2022/05/13 01:31:59;;;;;;;7.13;2.58;;;;;;;9.63;70.84;101707.56;4859900;29;20057;-76
2022/05/13 01:34:25;;;;;;;6.53;2.17;;;;;;;9.67;70.97;101717.31;4859307;29;20049;-75
2022/05/13 01:36:50;;;;;;;8.32;2.65;;;;;;;9.67;70.65;101728.19;4841913;29;20072;-69
2022/05/13 01:39:15;;;;;;;8.45;2.63;;;;;;;9.67;70.41;101720.03;4844133;29;20070;-75
2022/05/13 01:41:41;;;;;;;5.07;2.00;;;;;;;9.70;70.60;101725.31;4860540;29;20033;-75
2022/05/13 01:44:06;;;;;;;3.58;1.88;;;;;;;9.70;69.99;101726.19;4839803;29;20471;-73
2022/05/13 01:46:31;;;;;;;8.00;2.50;;;;;;;9.76;70.90;101724.97;4860466;29;20048;-69
2022/05/13 01:48:57;;;;;;;11.50;2.53;;;;;;;9.82;71.28;101727.34;4843530;29;20453;-76
2022/05/13 01:51:23;;;;;;;6.93;2.35;;;;;;;9.86;70.18;101730.78;4863190;29;20044;-76
2022/05/13 01:53:48;;;;;;;10.45;1.98;;;;;;;9.91;70.47;101728.66;4843641;29;20410;-69
2022/05/13 01:56:14;;;;;;;8.40;2.55;;;;;;;9.92;70.76;101731.28;4843566;29;20053;-75
2022/05/13 01:58:39;;;;;;;7.60;2.08;;;;;;;9.93;69.58;101718.56;4842552;29;20110;-70
2022/05/13 02:01:07;;;;;;;3.92;2.00;;;;;;;9.98;69.64;101721.94;4838074;29;20128;-75
2022/05/13 02:03:45;;;;;;;6.22;1.95;;;;;;;9.97;70.09;101726.47;4827910;29;20045;-70
2022/05/13 02:06:25;;;;;;;8.00;2.15;;;;;;;9.94;70.24;101721.22;4858528;29;20044;-75
2022/05/13 02:08:56;;;;;;;9.10;2.50;;;;;;;9.92;70.12;101728.56;4860064;29;20418;-69
2022/05/13 02:11:22;;;;;;;7.82;3.60;;;;;;;9.89;70.07;101715.19;4860110;29;20177;-77
2022/05/13 02:13:49;;;;;;;4.80;1.92;;;;;;;9.89;70.17;101723.34;4819698;29;20049;-76
2022/05/13 02:16:15;;;;;;;10.70;2.40;;;;;;;9.90;70.21;101716.94;4866366;29;20051;-70
2022/05/13 02:18:41;;;;;;;5.07;2.10;;;;;;;9.88;70.56;101721.56;4860202;29;20040;-69
2022/05/13 02:21:08;;;;;;;4.93;1.90;;;;;;;9.87;69.25;101718.94;4859719;29;20025;-75
2022/05/13 02:23:33;;;;;;;10.13;2.08;;;;;;;9.88;70.20;101707.09;4834756;29;20054;-68
2022/05/13 02:26:02;;;;;;;10.48;1.90;;;;;;;9.83;70.94;101712.78;4855885;29;20048;-73
2022/05/13 02:28:30;;;;;;;7.75;2.20;;;;;;;9.84;70.76;101714.56;4859070;29;20049;-72
2022/05/13 02:30:55;;;;;;;7.95;2.80;;;;;;;9.81;70.99;101717.44;4868573;29;20405;-77
2022/05/13 02:33:21;;;;;;;9.20;2.47;;;;;;;9.82;70.94;101716.47;4836124;29;20034;-69
2022/05/13 02:35:47;;;;;;;7.65;2.33;;;;;;;9.83;70.63;101712.78;4856106;29;20061;-75
2022/05/13 02:38:15;;;;;;;7.28;2.10;;;;;;;9.85;71.10;101715.44;4859794;29;20082;-76
2022/05/13 02:43:26;;;;;;;5.28;2.17;;;;;;;9.88;71.76;101709.81;4858965;29;20693;-73
2022/05/13 02:45:52;;;;;;;13.43;2.50;;;;;;;9.87;70.79;101711.66;4841509;29;20030;-69
2022/05/13 02:48:17;;;;;;;12.50;3.45;;;;;;;9.90;71.60;101711.50;4857606;29;20505;-69
2022/05/13 02:50:42;;;;;;;5.03;2.08;;;;;;;9.89;70.95;101709.75;4861921;29;20041;-75
2022/05/13 02:53:08;;;;;;;11.32;2.47;;;;;;;9.90;71.06;101702.47;4867975;29;20048;-68
2022/05/13 02:55:33;;;;;;;9.50;1.92;;;;;;;9.90;71.67;101706.06;4859052;29;20049;-69
2022/05/13 02:57:58;;;;;;;6.00;2.42;;;;;;;9.88;72.11;101704.38;4841629;29;20079;-70
2022/05/13 03:00:24;;;;;;;4.95;1.92;;;;;;;9.91;71.84;101712.38;4863933;29;20125;-75
2022/05/13 03:02:49;;;;;;;5.72;2.13;;;;;;;9.90;71.59;101702.47;4859006;29;20124;-70
2022/05/13 03:05:15;;;;;;;7.25;2.22;;;;;;;9.94;71.62;101717.66;4865142;29;20036;-69
2022/05/13 03:07:40;;;;;;;11.40;2.20;;;;;;;9.93;72.15;101713.16;4841881;29;20041;-75
2022/05/13 03:10:08;;;;;;;9.75;2.88;;;;;;;9.94;71.60;101714.91;4858898;29;20041;-69
2022/05/13 03:12:33;;;;;;;7.15;2.50;;;;;;;9.94;72.12;101715.78;4856775;29;20090;-70
2022/05/13 03:14:59;;;;;;;5.43;1.77;;;;;;;9.94;72.82;101714.91;4856652;29;20041;-70
2022/05/13 03:17:24;;;;;;;10.63;2.35;;;;;;;9.98;71.51;101702.91;4842368;29;20100;-75
2022/05/13 03:19:49;;;;;;;8.38;2.78;;;;;;;10.02;72.23;101706.31;4858803;29;20124;-70
2022/05/13 03:22:15;;;;;;;16.63;3.13;;;;;;;10.06;71.87;101705.19;4858025;29;20477;-72
2022/05/13 03:24:40;;;;;;;10.10;2.63;;;;;;;10.06;71.93;101697.03;4858824;29;20041;-78
2022/05/13 03:27:07;;;;;;;8.60;2.50;;;;;;;10.04;73.07;101697.13;4833739;29;20451;-77
2022/05/13 03:29:32;;;;;;;7.65;2.50;;;;;;;10.04;72.46;101698.97;4861402;29;20088;-74
2022/05/13 03:31:57;;;;;;;9.85;3.20;;;;;;;10.02;73.18;101701.75;4848692;29;20465;-70
2022/05/13 03:34:23;;;;;;;7.82;2.30;;;;;;;10.00;73.42;101698.25;4858428;29;20520;-69
2022/05/13 03:36:49;;;;;;;7.22;2.58;;;;;;;10.01;72.71;101699.13;4858777;29;20050;-75
2022/05/13 03:39:16;;;;;;;8.50;2.88;;;;;;;9.97;74.28;101698.41;4858301;29;20427;-77
2022/05/13 03:41:41;;;;;;;9.18;2.85;;;;;;;9.97;72.58;101701.13;4858615;29;20040;-76
2022/05/13 03:44:08;;;;;;;8.98;3.03;;;;;;;9.95;74.08;101701.22;4861596;29;20036;-74
2022/05/13 03:46:34;;;;;;;12.32;2.90;;;;;;;9.90;73.79;101706.06;4865448;29;20149;-76
2022/05/13 03:49:00;;;;;;;12.25;3.13;;;;;;;9.87;74.74;101702.63;4856920;29;20116;-68
2022/05/13 03:51:26;;;;;;;9.30;3.00;;;;;;;9.82;74.98;101700.16;4853129;29;20037;-76
2022/05/13 03:53:51;;;;;;;11.95;2.95;;;;;;;9.80;74.52;101710.25;4855035;29;20048;-69
2022/05/13 03:56:17;;;;;;;12.27;2.97;;;;;;;9.79;74.90;101699.44;4858072;29;20048;-69
2022/05/13 03:58:42;;;;;;;8.63;2.83;;;;;;;9.78;74.37;101704.00;4855930;29;20045;-69
2022/05/13 04:01:07;;;;;;;7.70;3.03;;;;;;;9.75;74.42;101706.03;4856166;29;20051;-75
2022/05/13 04:03:33;;;;;;;7.75;2.88;;;;;;;9.73;73.99;101700.66;4857972;29;20208;-68
2022/05/13 04:08:57;;;;;;;12.25;3.60;;;;;;;9.75;75.42;101706.03;4859748;29;20048;-74
2022/05/13 04:11:34;;;;;;;10.35;2.90;;;;;;;9.75;74.70;101706.91;4845770;29;20033;-68
2022/05/13 04:16:43;;;;;;;9.48;3.33;;;;;;;9.71;75.83;101706.19;4863702;29;20053;-75
2022/05/13 04:19:10;;;;;;;10.40;3.88;;;;;;;9.76;75.27;101713.22;4826481;29;20387;-68
2022/05/13 04:21:37;;;;;;;6.95;3.35;;;;;;;9.74;76.12;101699.69;4860918;29;20037;-69
2022/05/13 04:24:07;;;;;;;11.70;3.53;;;;;;;9.75;76.37;101712.34;4844865;29;20041;-69
2022/05/13 04:26:32;;;;;;;12.55;3.80;;;;;;;9.73;75.82;101703.38;4857888;29;20029;-69
2022/05/13 04:29:00;;;;;;;12.52;3.83;;;;;;;9.73;76.14;101708.81;4856469;29;20050;-68
2022/05/13 04:31:31;;;;;;;11.35;3.72;;;;;;;9.76;75.48;101705.94;4856101;29;20077;-69
2022/05/13 04:33:57;;;;;;;9.23;3.65;;;;;;;9.80;75.60;101712.97;4857658;29;20061;-70
2022/05/13 04:36:23;;;;;;;8.52;2.85;;;;;;;9.80;76.39;101709.38;4857693;29;20113;-76
2022/05/13 04:38:49;;;;;;;12.50;3.35;;;;;;;9.83;75.95;101722.78;4841092;29;20359;-69
2022/05/13 04:43:59;;;;;;;12.40;4.25;;;;;;;9.89;76.64;101733.31;4842841;29;20033;-71
2022/05/13 04:46:25;;;;;;;8.25;3.05;;;;;;;10.00;75.24;101730.88;4861893;29;20041;-75
2022/05/13 04:48:51;;;;;;;12.75;3.67;;;;;;;10.12;74.57;101741.06;4858691;29;20033;-69
2022/05/13 04:51:17;;;;;;;13.75;4.88;;;;;;;10.22;76.11;101738.72;4860901;29;20084;-75
2022/05/13 04:53:44;;;;;;;9.23;3.92;;;;;;;10.30;74.52;101741.88;4828834;29;20080;-70
2022/05/13 04:56:09;;;;;;;7.93;3.75;;;;;;;10.36;75.07;101743.41;4859854;29;20041;-69
2022/05/13 04:58:35;;;;;;;7.38;3.38;;;;;;;10.40;75.08;101736.81;4857149;29;20508;-75
2022/05/13 05:01:04;;;;;;;17.02;4.68;;;;;;;10.45;74.48;101746.47;4841495;29;20025;-71
2022/05/13 05:03:30;;;;;;;9.88;3.63;;;;;;;10.50;75.00;101754.38;4856615;29;20505;-68
2022/05/13 05:05:57;;;;;;;11.68;3.88;;;;;;;10.56;75.13;101756.72;4843057;29;20121;-68
2022/05/13 05:08:23;;;;;;;13.88;3.90;;;;;;;10.65;73.40;101760.75;4849711;29;20041;-68
2022/05/13 05:10:48;;;;;;;12.23;4.18;;;;;;;10.68;74.09;101760.59;4853746;29;20049;-68
2022/05/13 05:13:29;;;;;;;13.02;3.58;;;;;;;10.72;73.76;101756.69;4852145;29;20394;-68
2022/05/13 05:15:55;;;;;;;17.38;4.80;;;;;;;10.77;74.28;101759.16;4860755;29;20045;-68
2022/05/13 05:18:21;;;;;;;10.50;3.47;;;;;;;10.85;73.93;101754.16;4827029;29;20483;-75
2022/05/13 05:20:48;;;;;;;13.02;3.60;;;;;;;10.95;73.15;101764.38;4837100;29;20048;-75
2022/05/13 05:23:16;;;;;;;6.32;3.50;;;;;;;10.99;73.63;101770.53;4852689;29;20045;-72
2022/05/13 05:25:43;;;;;;;10.75;3.72;;;;;;;11.03;73.57;101773.97;4845256;29;20041;-69
2022/05/13 05:28:08;;;;;;;16.17;3.95;;;;;;;11.03;74.12;101772.13;4841006;29;20936;-68
2022/05/13 05:30:34;;;;;;;14.82;3.92;;;;;;;11.12;73.94;101774.28;4856957;29;20053;-69
2022/05/13 05:32:59;;;;;;;11.13;4.10;;;;;;;11.18;73.76;101783.94;4855619;29;20041;-69
2022/05/13 05:35:24;;;;;;;13.57;4.00;;;;;;;11.25;73.93;101790.78;4842548;29;20413;-68
2022/05/13 05:37:50;;;;;;;8.68;3.35;;;;;;;11.30;73.81;101780.47;4853190;29;20487;-74
2022/05/13 05:40:15;;;;;;;15.75;3.45;;;;;;;11.34;72.78;101794.81;4850349;29;20105;-74
2022/05/13 05:42:41;;;;;;;11.95;3.75;;;;;;;11.37;73.54;101784.56;4849903;29;20540;-69
2022/05/13 05:45:11;;;;;;;14.02;3.72;;;;;;;11.39;72.84;101790.81;4868924;29;22011;-75
2022/05/13 05:47:37;;;;;;;16.00;4.43;;;;;;;11.45;73.16;101806.78;4852731;29;20042;-74
2022/05/13 05:50:05;;;;;;;12.27;4.00;;;;;;;11.57;73.32;101807.03;4845948;29;20041;-73
2022/05/13 05:52:31;;;;;;;16.42;4.07;;;;;;;11.61;72.45;101804.03;4838697;29;20524;-68
2022/05/13 05:57:40;;;;;;;19.05;4.65;;;;;;;11.73;73.29;101813.28;4858030;29;20513;-75
2022/05/13 06:00:07;;;;;;;11.57;3.70;;;;;;;11.86;71.92;101819.75;4853224;29;20037;-68
2022/05/13 06:02:33;;;;;;;14.65;4.38;;;;;;;11.92;72.77;101813.03;4843156;29;20057;-74
2022/05/13 06:04:59;;;;;;;19.10;4.93;;;;;;;11.96;72.75;101812.75;4856534;29;20045;-77
2022/05/13 06:07:26;;;;;;;12.73;4.28;;;;;;;12.05;72.29;101824.06;4858761;29;20040;-76
2022/05/13 06:09:52;;;;;;;13.18;4.53;;;;;;;12.15;71.42;101815.19;4857993;29;20048;-74
2022/05/13 06:12:18;;;;;;;10.77;3.90;;;;;;;12.32;71.65;101816.84;4858434;29;20037;-68
2022/05/13 06:14:44;;;;;;;12.60;4.00;;;;;;;12.45;71.04;101820.56;4862801;29;20030;-72
2022/05/13 06:17:09;;;;;;;12.38;4.15;;;;;;;12.54;71.13;101816.31;4840364;29;20048;-75
2022/05/13 06:19:35;;;;;;;11.82;4.65;;;;;;;12.55;71.33;101820.81;4858643;29;20104;-76
2022/05/13 06:22:00;;;;;;;12.93;4.60;;;;;;;12.59;70.37;101841.50;4863156;29;20037;-67
2022/05/13 06:24:26;;;;;;;15.88;5.22;;;;;;;12.62;71.71;101832.22;4843124;29;20044;-68
2022/05/13 06:26:52;;;;;;;13.05;4.60;;;;;;;12.71;70.68;101827.03;4836252;29;20506;-75
2022/05/13 06:29:22;;;;;;;14.88;4.68;;;;;;;12.78;70.91;101838.44;4858543;29;20113;-71
2022/05/13 06:31:48;;;;;;;17.70;5.57;;;;;;;12.86;70.79;101837.91;4859349;29;20046;-75
2022/05/13 06:34:14;;;;;;;21.80;5.43;;;;;;;12.97;70.27;101838.09;4825275;29;20400;-75
2022/05/13 06:36:40;;;;;;;14.70;4.72;;;;;;;13.09;69.29;101837.25;4841113;29;20545;-68
2022/05/13 06:39:06;;;;;;;13.60;4.78;;;;;;;13.31;69.97;101849.50;4842935;29;20045;-68
2022/05/13 06:41:37;;;;;;;11.50;4.78;;;;;;;13.37;69.12;101843.63;4853828;29;20093;-74
2022/05/13 06:44:06;;;;;;;18.85;4.93;;;;;;;13.48;69.45;101841.03;4859327;29;20115;-74
2022/05/13 06:46:35;;;;;;;9.57;4.82;;;;;;;13.56;69.28;101849.56;4861665;29;20134;-76
2022/05/13 06:49:01;;;;;;;13.20;5.13;;;;;;;13.70;70.06;101856.81;4853343;29;20439;-75
2022/05/13 06:51:26;;;;;;;16.83;5.57;;;;;;;13.86;69.01;101848.44;4850318;29;20038;-69
2022/05/13 06:53:51;;;;;;;18.52;5.35;;;;;;;14.15;67.75;101854.56;4847978;29;20081;-75
2022/05/13 06:56:17;;;;;;;12.30;4.93;;;;;;;14.26;67.49;101851.94;4844118;29;20022;-77
2022/05/13 06:58:42;;;;;;;14.40;5.20;;;;;;;14.30;68.15;101850.72;4849311;29;20033;-75
2022/05/13 07:01:08;;;;;;;15.13;5.28;;;;;;;14.30;67.60;101854.34;4862960;29;20576;-68
2022/05/13 07:03:33;;;;;;;11.70;5.15;;;;;;;14.24;66.51;101857.53;4854673;29;20120;-75
2022/05/13 07:05:59;;;;;;;18.05;5.35;;;;;;;14.17;67.74;101858.06;4857919;29;20041;-75
2022/05/13 07:08:24;;;;;;;16.15;6.53;;;;;;;14.19;68.24;101854.25;4829795;29;20414;-67
2022/05/13 07:10:50;;;;;;;11.25;4.93;;;;;;;14.26;66.91;101868.34;4856301;29;20041;-68
2022/05/13 07:13:16;;;;;;;20.50;6.43;;;;;;;14.36;67.08;101854.88;4858821;29;20154;-75
2022/05/13 07:15:43;;;;;;;19.77;5.82;;;;;;;14.49;67.12;101853.91;4858809;29;20049;-75
2022/05/13 07:18:09;;;;;;;15.40;5.97;;;;;;;14.63;65.80;101852.91;4858015;29;20038;-68
2022/05/13 07:20:35;;;;;;;16.45;5.85;;;;;;;14.80;66.38;101854.41;4856442;29;20096;-76
2022/05/13 07:23:01;;;;;;;14.18;6.18;;;;;;;15.07;65.63;101859.69;4851422;29;20494;-75
2022/05/13 07:25:26;;;;;;;16.25;6.40;;;;;;;15.27;65.10;101849.97;4857372;29;20039;-74
2022/05/13 07:27:52;;;;;;;18.70;6.65;;;;;;;15.34;65.00;101850.34;4854932;29;20072;-75
2022/05/13 07:30:18;;;;;;;25.15;6.43;;;;;;;15.30;64.67;101855.22;4838122;29;20076;-69
2022/05/13 07:32:43;;;;;;;14.27;6.57;;;;;;;15.35;64.66;101863.97;4858070;29;20502;-72
2022/05/13 07:35:09;;;;;;;19.50;7.45;;;;;;;15.32;63.93;101855.97;4842107;29;20045;-76
2022/05/13 07:37:36;;;;;;;15.73;5.57;;;;;;;15.51;63.48;101859.03;4856053;29;20160;-67
2022/05/13 07:42:46;;;;;;;11.15;4.80;;;;;;;15.74;63.52;101871.00;4857105;29;20517;-74
2022/05/13 07:45:12;;;;;;;14.13;5.95;;;;;;;15.77;62.85;101861.69;4853778;29;20045;-68
2022/05/13 07:47:39;;;;;;;14.05;6.63;;;;;;;15.75;63.09;101861.78;4856540;29;20044;-75
2022/05/13 07:50:06;;;;;;;18.88;5.60;;;;;;;15.88;62.71;101861.69;4855763;29;20066;-67
2022/05/13 07:52:31;;;;;;;15.15;5.47;;;;;;;16.14;62.78;101867.00;4838224;29;20045;-75
2022/05/13 07:54:57;;;;;;;13.65;5.57;;;;;;;16.28;61.68;101864.03;4841473;29;20040;-68
2022/05/13 07:57:22;;;;;;;13.20;4.80;;;;;;;16.28;61.27;101869.53;4856357;29;20041;-68
2022/05/13 08:02:37;;;;;;;17.33;4.63;;;;;;;16.19;61.43;101882.13;4849885;29;20077;-77
2022/05/13 08:05:02;;;;;;;10.60;4.18;;;;;;;16.05;60.54;101876.84;4856349;29;20057;-70
2022/05/13 08:07:27;;;;;;;10.25;4.72;;;;;;;15.90;59.71;101869.81;4869922;29;20045;-74
2022/05/13 08:09:53;;;;;;;11.65;4.72;;;;;;;15.87;60.27;101887.41;4857978;29;20038;-67
2022/05/13 08:12:18;;;;;;;10.45;4.82;;;;;;;15.79;60.66;101877.00;4856468;29;20036;-75
2022/05/13 08:14:43;;;;;;;15.18;4.63;;;;;;;15.90;61.44;101884.44;4862018;29;20048;-71
2022/05/13 08:17:09;;;;;;;13.88;4.28;;;;;;;16.13;59.90;101889.94;4843667;29;20045;-77
2022/05/13 08:19:34;;;;;;;12.40;4.32;;;;;;;16.25;60.50;101881.63;4857899;29;20048;-67
2022/05/13 08:22:00;;;;;;;15.65;4.80;;;;;;;16.39;59.21;101896.13;4861731;29;20045;-67
2022/05/13 08:24:25;;;;;;;10.27;4.30;;;;;;;16.35;58.88;101890.00;4857739;29;20065;-75
2022/05/13 08:26:50;;;;;;;9.05;4.70;;;;;;;16.42;59.44;101896.75;4857691;29;20044;-68
2022/05/13 08:29:16;;;;;;;7.28;3.58;;;;;;;16.45;57.80;101890.13;4857498;29;20055;-74
2022/05/13 08:31:41;;;;;;;9.10;4.05;;;;;;;16.39;57.70;101887.88;4863356;29;20073;-75
2022/05/13 08:34:07;;;;;;;8.38;3.45;;;;;;;16.56;57.98;101882.78;4839457;29;20046;-74
2022/05/13 08:36:33;;;;;;;9.32;3.47;;;;;;;16.86;59.05;101896.91;4855880;29;20066;-67
2022/05/13 08:38:59;;;;;;;10.52;3.40;;;;;;;17.13;57.61;101891.00;4850792;29;20482;-74
2022/05/13 08:41:49;;;;;;;9.82;4.20;;;;;;;17.20;57.17;101894.97;4844276;29;20046;-73
2022/05/13 08:44:15;;;;;;;12.77;3.65;;;;;;;17.15;55.79;101892.59;4854748;29;20477;-75
2022/05/13 08:47:18;;;;;;;12.50;3.83;;;;;;;17.07;56.51;101897.91;4836196;29;20037;-67
2022/05/13 08:49:54;;;;;;;12.63;4.15;;;;;;;16.79;55.84;101899.31;4845328;29;20045;-72
2022/05/13 08:55:15;;;;;;;6.85;3.60;;;;;;;16.68;56.38;101899.25;4853285;29;20090;-68
2022/05/13 08:57:44;;;;;;;9.52;3.47;;;;;;;16.81;56.05;101892.66;4851778;29;20044;-74
2022/05/13 09:00:16;;;;;;;8.75;3.40;;;;;;;17.13;55.84;101896.50;4860357;29;20386;-66
2022/05/13 09:02:50;;;;;;;10.18;3.38;;;;;;;17.24;55.78;101901.97;4853251;29;20045;-73
2022/05/13 09:05:26;;;;;;;10.50;2.92;;;;;;;17.39;55.33;101897.91;4856275;29;20041;-68
2022/05/13 09:07:55;;;;;;;10.27;3.50;;;;;;;17.72;55.30;101907.06;4858328;29;20090;-69
2022/05/13 09:10:21;;;;;;;12.30;3.40;;;;;;;17.89;53.12;101894.63;4844454;29;20040;-75
2022/05/13 09:13:06;;;;;;;10.90;3.47;;;;;;;17.88;52.87;101904.78;4857485;29;20053;-67
2022/05/13 09:15:38;;;;;;;9.35;3.17;;;;;;;17.71;52.49;101906.19;4857296;29;20061;-67
2022/05/13 09:18:52;;;;;;;6.97;2.55;;;;;;;17.82;54.18;101899.81;4857322;29;20065;-67
2022/05/13 09:21:21;;;;;;;8.07;3.08;;;;;;;18.14;51.16;101896.13;4816067;29;20041;-68
2022/05/13 09:23:46;;;;;;;8.10;2.47;;;;;;;18.58;52.31;101906.84;4858152;29;20070;-76
2022/05/13 09:26:13;;;;;;;7.55;2.65;;;;;;;18.76;51.10;101901.59;4857569;29;20029;-74
2022/05/13 09:29:17;;;;;;;6.15;2.47;;;;;;;19.04;51.68;101904.59;4859208;29;20049;-69
2022/05/13 09:32:01;;;;;;;6.85;2.80;;;;;;;19.27;49.88;101913.53;4862632;29;20037;-75
2022/05/13 09:34:39;;;;;;;6.47;2.22;;;;;;;19.38;49.03;101908.72;4859204;29;20049;-76
2022/05/13 09:37:09;;;;;;;7.78;2.15;;;;;;;19.35;48.65;101917.31;4860589;29;20532;-67
2022/05/13 09:39:38;;;;;;;6.82;2.33;;;;;;;19.54;47.68;101913.72;4869294;29;20425;-75
2022/05/13 09:42:19;;;;;;;5.47;2.30;;;;;;;19.78;48.26;101913.31;4860515;29;20048;-74
2022/05/13 09:44:44;;;;;;;8.93;2.50;;;;;;;20.12;46.63;101915.63;4863529;29;20049;-68
2022/05/13 09:47:26;;;;;;;9.80;2.55;;;;;;;20.25;45.13;101916.19;4844911;29;20037;-77
2022/05/13 09:49:52;;;;;;;10.80;2.45;;;;;;;20.04;45.40;101919.13;4844764;29;20069;-67
2022/05/13 09:52:27;;;;;;;6.43;2.03;;;;;;;20.05;46.60;101920.88;4840776;29;20679;-76
2022/05/13 09:54:53;;;;;;;6.07;2.28;;;;;;;19.92;44.04;101913.91;4841445;29;20060;-66
2022/05/13 09:57:27;;;;;;;9.32;2.78;;;;;;;19.59;46.08;101914.16;4860284;29;20078;-75
2022/05/13 09:59:58;;;;;;;11.30;1.98;;;;;;;19.77;47.20;101927.25;4857309;29;20509;-69
2022/05/13 10:02:29;;;;;;;4.05;1.95;;;;;;;20.04;48.14;101924.63;4859906;29;20589;-75
2022/05/13 10:05:10;;;;;;;8.77;2.35;;;;;;;20.37;47.89;101919.66;4860005;29;20057;-75
2022/05/13 10:07:45;;;;;;;5.77;2.23;;;;;;;20.61;44.92;101909.00;4843619;29;20056;-67
2022/05/13 10:15:54;;;;;;;6.40;2.45;;;;;;;21.45;42.58;101916.34;4865289;29;20057;-67
2022/05/13 10:18:29;;;;;;;7.43;2.13;;;;;;;21.30;44.14;101915.94;4859851;29;20037;-67
2022/05/13 10:21:05;;;;;;;7.53;2.15;;;;;;;21.53;41.96;101913.63;4844076;29;20037;-75
2022/05/13 10:23:36;;;;;;;7.50;2.13;;;;;;;21.39;42.76;101909.50;4863688;29;20124;-76
2022/05/13 10:26:08;;;;;;;9.90;2.50;;;;;;;21.87;44.28;101919.38;4859702;29;20045;-73
2022/05/13 10:28:40;;;;;;;10.15;2.00;;;;;;;22.32;40.60;101917.50;4866263;29;20068;-74
2022/05/13 10:31:19;;;;;;;9.25;1.88;;;;;;;22.70;39.60;101924.53;4857919;29;20573;-67
2022/05/13 10:34:01;;;;;;;5.47;2.00;;;;;;;22.62;38.62;101924.50;4859594;29;20048;-75
2022/05/13 10:36:47;;;;;;;5.90;1.98;;;;;;;22.81;39.51;101910.38;4846112;29;20037;-76
2022/05/13 10:39:13;;;;;;;7.15;2.58;;;;;;;22.40;38.13;101915.69;4856209;29;20049;-74
2022/05/13 10:41:41;;;;;;;6.55;2.10;;;;;;;21.84;38.56;101900.28;4859520;29;20112;-75
2022/05/13 10:44:06;;;;;;;6.93;1.85;;;;;;;21.60;40.86;101917.53;4861370;29;20205;-75
2022/05/13 10:46:44;;;;;;;7.15;1.30;;;;;;;21.66;40.36;101921.56;4840192;29;20053;-67
2022/05/13 10:49:10;;;;;;;3.65;1.02;;;;;;;22.05;38.84;101905.47;4845356;29;20046;-68
2022/05/13 10:52:05;;;;;;;10.43;1.48;;;;;;;22.52;40.99;101899.66;4859156;29;20048;-74
2022/05/13 10:55:06;;;;;;;11.27;1.52;;;;;;;22.83;36.35;101902.75;4859081;29;20052;-66
2022/05/13 10:57:42;;;;;;;3.72;1.70;;;;;;;22.64;38.16;101900.22;4837022;29;20060;-66
2022/05/13 11:00:25;;;;;;;6.53;1.60;;;;;;;22.41;37.96;101902.69;4861923;29;20037;-73
2022/05/13 11:03:15;;;;;;;7.90;1.60;;;;;;;22.16;38.71;101912.72;4859030;29;20041;-75
2022/05/13 11:05:59;;;;;;;6.32;1.70;;;;;;;21.90;39.31;101916.25;4858680;29;20061;-67
2022/05/13 11:08:50;;;;;;;8.32;2.00;;;;;;;21.79;40.14;101916.53;4859076;29;20107;-67
2022/05/13 11:11:22;;;;;;;7.97;2.08;;;;;;;21.26;39.95;101914.50;4849777;29;20049;-75
2022/05/13 11:14:08;;;;;;;4.70;1.88;;;;;;;21.39;41.39;101917.81;4858050;29;20498;-67
2022/05/13 11:16:47;;;;;;;5.63;1.63;;;;;;;22.03;40.87;101918.63;4864170;29;20041;-67
2022/05/13 11:19:31;;;;;;;4.47;1.88;;;;;;;22.09;38.86;101912.44;4859227;29;20040;-75
2022/05/13 11:22:18;;;;;;;5.45;1.67;;;;;;;21.97;39.53;101923.97;4858854;29;20037;-74
2022/05/13 11:28:11;;;;;;;6.60;1.73;;;;;;;21.35;40.36;101919.16;4862851;29;20053;-67
2022/05/13 11:30:50;;;;;;;6.78;1.98;;;;;;;20.94;42.35;101926.06;4856522;29;20061;-76
2022/05/13 11:33:35;;;;;;;6.45;2.03;;;;;;;21.02;42.78;101919.75;4858541;29;20053;-69
2022/05/13 11:36:27;;;;;;;5.28;1.95;;;;;;;20.88;41.86;101922.00;4851324;29;20052;-75
2022/05/13 11:39:11;;;;;;;6.17;2.00;;;;;;;21.06;41.48;101913.75;4858406;29;20052;-76
2022/05/13 11:41:55;;;;;;;5.15;1.90;;;;;;;21.26;41.32;101902.56;4858420;29;20038;-67
2022/05/13 11:44:33;;;;;;;6.20;1.95;;;;;;;21.71;42.72;101913.66;4824915;29;20030;-75
2022/05/13 11:47:01;;;;;;;8.93;2.17;;;;;;;22.23;39.19;101912.94;4863794;29;20120;-68
2022/05/13 11:49:30;;;;;;;5.60;1.70;;;;;;;22.09;38.98;101912.44;4859377;29;20085;-67
2022/05/13 11:52:03;;;;;;;6.55;1.88;;;;;;;21.89;38.60;101928.38;4858321;29;20409;-75
2022/05/13 11:54:30;;;;;;;8.73;1.77;;;;;;;21.70;39.42;101931.31;4857406;29;20420;-75
2022/05/13 11:57:21;;;;;;;8.13;1.90;;;;;;;21.47;40.04;101927.25;4857983;29;20065;-67
2022/05/13 11:59:50;;;;;;;4.72;1.75;;;;;;;21.36;41.14;101918.16;4858088;29;20038;-69
2022/05/13 12:02:38;;;;;;;7.88;2.13;;;;;;;21.51;41.04;101929.56;4847096;29;20134;-75
2022/05/13 12:05:23;;;;;;;10.82;2.28;;;;;;;21.43;40.05;101912.84;4852671;29;20033;-67
2022/05/13 12:08:01;;;;;;;5.75;1.83;;;;;;;21.53;41.12;101923.84;4858137;29;20047;-66